Seapace — 9HA2223 — position and weather

sailwx.info

Track history (hours):
 
Tides and Currents Weather Stations Pressure Air Temp Water Temp Dewpoint Dewpoint Depression Visibility Wind Speed Wind Dir Waves Ship Positions

Seapace

Last reported at 2017-Nov-02 06:43 UTC. Time now 2017-Nov-24 02:09 UTC.
Position S 24°39' W 046°33'.
Warning: this ship's position is 21 days out of date.

Length 190 m; draft 6.9 m.

Type: Cargo ship. MMSI: 248184000.

Date/timePositionNaut miles runAvg speedWind from/ knotsBaromVisibWave heightAir tempDewpointWater temp
2017-Nov-02 06:43S 24°39' W 046°33'311.4
2017-Nov-02 06:29S 24°37' W 046°32'611.2
2017-Nov-02 05:56S 24°31' W 046°30'511.1
2017-Nov-02 05:28S 24°26' W 046°28'511.0
2017-Nov-02 05:00S 24°21' W 046°27'611.0
2017-Nov-02 04:30S 24°16' W 046°25'611.0
2017-Nov-02 04:00S 24°11' W 046°24'510.9
2017-Nov-02 03:30S 24°05' W 046°22'510.6
2017-Nov-02 03:00S 24°00' W 046°20'3 6.2
2017-Nov-02 02:30S 23°58' W 046°18'  
2017-Oct-29 09:34S 23°56' W 046°19'0 1.6
2017-Oct-29 09:29S 23°56' W 046°19'3 6.4
2017-Oct-29 09:00S 23°59' W 046°17'4 7.6
2017-Oct-29 08:30S 24°01' W 046°21'3 5.4
2017-Oct-29 08:00S 24°04' W 046°22'1 1.5
2017-Oct-29 07:31S 24°05' W 046°21'0 0.1
2017-Oct-29 07:01S 24°05' W 046°21'0 0.0
2017-Oct-29 06:28S 24°05' W 046°21'0 0.0
2017-Oct-29 06:01S 24°05' W 046°21'0 0.0
2017-Oct-29 05:28S 24°05' W 046°21'0 0.0
2017-Oct-29 05:01S 24°05' W 046°21'0 0.1
2017-Oct-29 04:31S 24°05' W 046°21'0 0.0
2017-Oct-29 03:58S 24°05' W 046°21'0 0.0
2017-Oct-28 18:48S 24°05' W 046°22'0 0.0
2017-Oct-28 18:30S 24°05' W 046°22'0 0.0
2017-Oct-28 18:01S 24°05' W 046°22'0 0.0
2017-Oct-28 17:28S 24°05' W 046°22'0 0.0
2017-Oct-28 17:00S 24°05' W 046°22'0 0.0
2017-Oct-28 16:27S 24°05' W 046°22'0 0.0
2017-Oct-28 15:51S 24°05' W 046°21'0 0.0
2017-Oct-28 15:24S 24°05' W 046°21'0 0.0
2017-Oct-28 14:58S 24°05' W 046°21'0 0.0
2017-Oct-28 14:30S 24°05' W 046°21'0 0.1
2017-Oct-28 14:00S 24°05' W 046°21'0 0.0
2017-Oct-28 13:30S 24°05' W 046°21'0 0.0
2017-Oct-28 12:57S 24°05' W 046°21'0 0.1
2017-Oct-28 12:31S 24°05' W 046°21'0 0.0
2017-Oct-28 12:00S 24°05' W 046°21'0 0.0
2017-Oct-28 11:30S 24°05' W 046°21'0 0.0
2017-Oct-28 11:00S 24°05' W 046°21'0 0.1
2017-Oct-28 10:27S 24°05' W 046°21'0 0.0
2017-Oct-28 10:00S 24°05' W 046°21'0 0.0
2017-Oct-28 09:30S 24°05' W 046°21'0 0.0
2017-Oct-28 08:57S 24°05' W 046°21'0 0.1
2017-Oct-28 08:30S 24°05' W 046°21'0 0.0
2017-Oct-28 07:51S 24°05' W 046°21'0 0.1
2017-Oct-28 07:27S 24°05' W 046°21'0 0.0
2017-Oct-28 07:00S 24°05' W 046°21'0 0.0
2017-Oct-28 06:24S 24°05' W 046°21'0 0.0
2017-Oct-28 06:00S 24°05' W 046°21'0 0.0
2017-Oct-28 05:30S 24°05' W 046°21'0 0.0
2017-Oct-28 05:00S 24°05' W 046°21'0 0.0
2017-Oct-28 04:30S 24°05' W 046°21'0 0.1
2017-Oct-28 04:00S 24°05' W 046°21'0 0.0
2017-Oct-28 03:27S 24°05' W 046°21'0 0.1
2017-Oct-28 03:00S 24°05' W 046°21'0 0.0
2017-Oct-28 02:27S 24°05' W 046°21'0 0.1
2017-Oct-28 01:54S 24°05' W 046°22'0 0.1
2017-Oct-28 01:30S 24°05' W 046°22'0 0.1
2017-Oct-28 00:48S 24°05' W 046°22'0 0.0
2017-Oct-28 00:30S 24°05' W 046°22'0 0.1
2017-Oct-28 00:00S 24°05' W 046°22'0 0.1
2017-Oct-27 23:30S 24°05' W 046°22'0 0.0
2017-Oct-27 22:57S 24°05' W 046°22'0 0.0
2017-Oct-27 22:30S 24°05' W 046°22'0 0.0
2017-Oct-27 21:57S 24°05' W 046°22'0 0.0
2017-Oct-27 21:27S 24°05' W 046°22'0 0.0
2017-Oct-27 21:00S 24°05' W 046°22'0 0.0
2017-Oct-27 20:27S 24°05' W 046°22'0 0.1
2017-Oct-27 20:00S 24°05' W 046°22'0 0.0
2017-Oct-27 19:27S 24°05' W 046°22'0 0.0
2017-Oct-27 19:00S 24°05' W 046°22'0 0.0
2017-Oct-27 18:30S 24°05' W 046°22'0 0.0
2017-Oct-27 18:00S 24°05' W 046°22'0 0.0
2017-Oct-27 17:30S 24°05' W 046°22'0 0.0
2017-Oct-27 16:57S 24°05' W 046°22'0 0.0
2017-Oct-27 16:30S 24°05' W 046°22'0 0.0
2017-Oct-27 15:48S 24°05' W 046°22'0 0.1
2017-Oct-27 15:30S 24°05' W 046°22'0 0.0
2017-Oct-27 14:57S 24°05' W 046°22'0 0.0
2017-Oct-27 14:30S 24°05' W 046°22'0 0.1
2017-Oct-27 13:57S 24°05' W 046°22'0 0.0
2017-Oct-27 13:27S 24°05' W 046°22'0 0.0
2017-Oct-27 13:00S 24°05' W 046°22'0 0.0
2017-Oct-27 12:30S 24°05' W 046°22'0 0.0
2017-Oct-27 11:57S 24°05' W 046°22'0 0.0
2017-Oct-27 11:27S 24°05' W 046°22'0 0.0
2017-Oct-27 10:57S 24°05' W 046°22'0 0.1
2017-Oct-27 10:30S 24°05' W 046°22'0 0.2
2017-Oct-27 10:00S 24°05' W 046°21'0 0.1
2017-Oct-27 09:27S 24°05' W 046°21'0 0.1
2017-Oct-27 09:00S 24°05' W 046°21'0 0.0
2017-Oct-27 08:27S 24°05' W 046°21'0 0.3
2017-Oct-27 08:00S 24°05' W 046°21'0 0.3
2017-Oct-27 07:27S 24°05' W 046°22'0 0.0
2017-Oct-27 07:00S 24°05' W 046°22'0 0.0
2017-Oct-27 06:30S 24°05' W 046°22'0 0.0
2017-Oct-27 06:00S 24°05' W 046°22'0 0.0
2017-Oct-27 05:30S 24°05' W 046°22'0 0.0
2017-Oct-27 05:00S 24°05' W 046°22'0 0.0
2017-Oct-27 04:30S 24°05' W 046°22'0 0.0
2017-Oct-27 03:54S 24°05' W 046°22'0 0.0
2017-Oct-27 03:30S 24°05' W 046°22'0 0.0
2017-Oct-27 03:00S 24°05' W 046°22'0 0.0
2017-Oct-27 02:27S 24°05' W 046°22'0 0.0
2017-Oct-27 01:54S 24°05' W 046°22'0 0.0
2017-Oct-27 01:30S 24°05' W 046°22'0 0.0
2017-Oct-27 01:00S 24°05' W 046°22'0 0.0
2017-Oct-27 00:27S 24°05' W 046°22'0 0.0
2017-Oct-27 00:00S 24°05' W 046°22'0 0.0
2017-Oct-26 23:30S 24°05' W 046°22'0 0.0
2017-Oct-26 23:00S 24°05' W 046°22'0 0.0
2017-Oct-26 22:30S 24°05' W 046°22'0 0.0
2017-Oct-26 21:57S 24°05' W 046°22'0 0.0
2017-Oct-26 21:30S 24°05' W 046°22'0 0.1
2017-Oct-26 20:57S 24°05' W 046°22'0 0.0
2017-Oct-26 20:27S 24°05' W 046°22'0 0.0
2017-Oct-26 20:00S 24°05' W 046°22'0 0.0
2017-Oct-26 19:27S 24°05' W 046°22'0 0.0
2017-Oct-26 18:57S 24°05' W 046°22'0 0.1
2017-Oct-26 18:27S 24°05' W 046°22'0 0.1
2017-Oct-26 18:00S 24°05' W 046°22'0 0.0
2017-Oct-26 17:27S 24°05' W 046°22'0 0.0
2017-Oct-26 16:57S 24°05' W 046°22'0 0.0
2017-Oct-26 16:27S 24°05' W 046°22'0 0.1
2017-Oct-26 16:00S 24°05' W 046°22'0 0.0
2017-Oct-26 15:30S 24°05' W 046°22'0 0.0
2017-Oct-26 15:00S 24°05' W 046°22'0 0.0
2017-Oct-26 14:27S 24°05' W 046°22'0 0.0
2017-Oct-26 13:57S 24°05' W 046°22'0 0.0
2017-Oct-26 13:27S 24°05' W 046°22'0 0.0
2017-Oct-26 13:00S 24°05' W 046°22'0 0.0
2017-Oct-26 12:30S 24°05' W 046°22'0 0.0
2017-Oct-26 11:57S 24°05' W 046°22'0 0.0
2017-Oct-26 11:24S 24°05' W 046°22'0 0.0
2017-Oct-26 11:00S 24°05' W 046°22'0 0.1
2017-Oct-26 10:21S 24°05' W 046°22'0 0.1
2017-Oct-26 09:54S 24°05' W 046°22'0 0.1
2017-Oct-26 09:27S 24°05' W 046°22'0 0.0
2017-Oct-26 08:57S 24°05' W 046°22'0 0.1
2017-Oct-26 08:30S 24°05' W 046°22'0 0.1
2017-Oct-26 08:00S 24°05' W 046°22'0 0.1
2017-Oct-26 07:30S 24°05' W 046°22'0 0.0
2017-Oct-26 07:00S 24°05' W 046°22'0 0.0
2017-Oct-26 06:24S 24°05' W 046°22'0 0.0
2017-Oct-26 05:45S 24°05' W 046°22'0 0.1
2017-Oct-26 05:30S 24°05' W 046°22'0 0.1
2017-Oct-26 04:57S 24°05' W 046°22'0 0.1
2017-Oct-26 04:27S 24°05' W 046°22'0 0.0
2017-Oct-26 03:57S 24°05' W 046°22'0 0.0
2017-Oct-26 03:27S 24°05' W 046°22'0 0.0
2017-Oct-26 03:00S 24°05' W 046°22'0 0.0
2017-Oct-26 02:30S 24°05' W 046°22'0 0.2
2017-Oct-26 01:51S 24°05' W 046°22'0 0.3
2017-Oct-26 01:30S 24°05' W 046°22'0 0.0
2017-Oct-26 01:00S 24°05' W 046°22'0 0.1
2017-Oct-26 00:27S 24°05' W 046°22'0 0.0
2017-Oct-25 23:54S 24°05' W 046°22'0 0.1
2017-Oct-25 23:30S 24°05' W 046°22'0 0.0
2017-Oct-25 23:00S 24°05' W 046°22'0 0.0
2017-Oct-25 22:21S 24°05' W 046°22'0 0.0
2017-Oct-25 21:57S 24°05' W 046°22'0 0.0
2017-Oct-25 21:30S 24°05' W 046°22'0 0.0
2017-Oct-25 20:57S 24°05' W 046°22'0 0.0
2017-Oct-25 20:27S 24°05' W 046°22'0 0.0
2017-Oct-25 19:57S 24°05' W 046°22'0 0.0
2017-Oct-25 19:30S 24°05' W 046°22'0 0.0
2017-Oct-25 19:00S 24°05' W 046°22'0 0.0
2017-Oct-25 18:21S 24°05' W 046°22'0 0.1
2017-Oct-25 18:00S 24°05' W 046°22'0 0.0
2017-Oct-25 17:30S 24°05' W 046°22'0 0.0
2017-Oct-25 17:00S 24°05' W 046°22'0 0.0
2017-Oct-25 16:30S 24°05' W 046°22'0 0.0
2017-Oct-25 15:57S 24°05' W 046°22'0 0.0
2017-Oct-25 15:27S 24°05' W 046°22'0 0.0
2017-Oct-25 14:57S 24°05' W 046°22'0 0.0
2017-Oct-25 14:21S 24°05' W 046°22'0 0.0
2017-Oct-25 13:57S 24°05' W 046°22'0 0.0
2017-Oct-25 13:30S 24°05' W 046°22'0 0.0
2017-Oct-25 13:00S 24°05' W 046°22'0 0.0
2017-Oct-25 12:30S 24°05' W 046°22'0 0.0
2017-Oct-25 11:48S 24°05' W 046°22'0 0.0
2017-Oct-25 11:27S 24°05' W 046°22'0 0.0
2017-Oct-25 11:00S 24°05' W 046°22'0 0.0
2017-Oct-25 10:30S 24°05' W 046°22'0 0.0
2017-Oct-25 10:00S 24°05' W 046°22'0 0.0
2017-Oct-25 09:30S 24°05' W 046°22'0 0.0
2017-Oct-25 09:00S 24°05' W 046°22'0 0.0
2017-Oct-25 08:30S 24°05' W 046°22'0 0.0
2017-Oct-25 08:00S 24°05' W 046°22'0 0.0
2017-Oct-25 07:30S 24°05' W 046°22'0 0.1
2017-Oct-25 07:00S 24°05' W 046°22'0 0.0
2017-Oct-25 06:27S 24°05' W 046°22'0 0.0
2017-Oct-25 06:00S 24°05' W 046°22'0 0.0
2017-Oct-25 05:24S 24°05' W 046°22'0 0.0
2017-Oct-25 05:00S 24°05' W 046°22'0 0.0
2017-Oct-25 04:27S 24°05' W 046°22'0 0.0
2017-Oct-25 04:00S 24°05' W 046°22'0 0.0
2017-Oct-25 03:27S 24°05' W 046°22'0 0.0
2017-Oct-25 02:57S 24°05' W 046°22'0 0.0
2017-Oct-25 02:30S 24°05' W 046°22'0 0.0
2017-Oct-25 02:00S 24°05' W 046°22'0 0.0
2017-Oct-25 01:30S 24°05' W 046°22'0 0.0
2017-Oct-25 00:54S 24°05' W 046°22'0 0.1
2017-Oct-25 00:30S 24°05' W 046°22'0 0.0
2017-Oct-25 00:00S 24°05' W 046°22'0 0.0
2017-Oct-24 23:15S 24°05' W 046°22'0 0.0
2017-Oct-24 23:00S 24°05' W 046°22'0 0.0
2017-Oct-24 22:27S 24°05' W 046°22'0 0.0
2017-Oct-24 21:57S 24°05' W 046°22'0 0.1
2017-Oct-24 21:30S 24°05' W 046°22'0 0.0
2017-Oct-24 21:00S 24°05' W 046°22'0 0.0
2017-Oct-24 20:30S 24°05' W 046°22'0 0.0
2017-Oct-24 20:00S 24°05' W 046°22'0 0.0
2017-Oct-24 19:30S 24°05' W 046°22'0 0.0
2017-Oct-24 18:57S 24°05' W 046°22'0 0.0
2017-Oct-24 18:27S 24°05' W 046°22'0 0.0
2017-Oct-24 17:57S 24°05' W 046°22'0 0.0
2017-Oct-24 17:15S 24°05' W 046°22'0 0.0
2017-Oct-24 17:00S 24°05' W 046°22'0 0.0
2017-Oct-24 16:30S 24°05' W 046°22'0 0.0
2017-Oct-24 16:00S 24°05' W 046°21'0 0.0
2017-Oct-24 15:30S 24°05' W 046°21'0 0.0
2017-Oct-24 15:00S 24°05' W 046°21'0 0.1
2017-Oct-24 14:30S 24°05' W 046°21'0 0.1
2017-Oct-24 13:57S 24°05' W 046°21'0 0.0
2017-Oct-24 13:30S 24°05' W 046°21'0 0.0
2017-Oct-24 13:00S 24°05' W 046°21'0 0.1
2017-Oct-24 12:30S 24°05' W 046°21'0 0.0
2017-Oct-24 12:00S 24°05' W 046°21'0 0.0
2017-Oct-24 11:30S 24°05' W 046°21'0 0.0
2017-Oct-24 11:00S 24°05' W 046°21'0 0.0
2017-Oct-24 10:30S 24°05' W 046°21'0 0.0
2017-Oct-24 10:00S 24°05' W 046°21'0 0.0
2017-Oct-24 09:30S 24°05' W 046°21'0 0.0
2017-Oct-24 09:00S 24°05' W 046°21'0 0.0
2017-Oct-24 08:30S 24°05' W 046°21'0 0.0
2017-Oct-24 08:00S 24°05' W 046°21'0 0.0
2017-Oct-24 07:27S 24°05' W 046°21'0 0.0
2017-Oct-24 06:57S 24°05' W 046°21'0 0.0
2017-Oct-24 06:27S 24°05' W 046°21'0 0.0
2017-Oct-24 06:00S 24°05' W 046°21'0 0.0
2017-Oct-24 05:30S 24°05' W 046°21'0 0.0
2017-Oct-24 04:57S 24°05' W 046°21'0 0.0
2017-Oct-24 04:27S 24°05' W 046°21'0 0.0
2017-Oct-24 03:57S 24°05' W 046°21'0 0.0
2017-Oct-24 03:27S 24°05' W 046°21'0 0.0
2017-Oct-24 02:57S 24°05' W 046°21'0 0.0
2017-Oct-24 02:27S 24°05' W 046°21'0 0.0
2017-Oct-24 02:00S 24°05' W 046°21'0 0.0
2017-Oct-24 01:27S 24°05' W 046°21'0 0.0
2017-Oct-24 00:57S 24°05' W 046°21'0 0.0
2017-Oct-24 00:27S 24°05' W 046°21'0 0.0
2017-Oct-23 23:57S 24°05' W 046°21'0 0.0
2017-Oct-23 23:30S 24°05' W 046°21'0 0.0
2017-Oct-23 22:57S 24°05' W 046°21'0 0.0
2017-Oct-23 22:30S 24°05' W 046°21'0 0.0
2017-Oct-23 21:57S 24°05' W 046°21'0 0.1
2017-Oct-23 21:30S 24°05' W 046°21'0 0.0
2017-Oct-23 21:00S 24°05' W 046°21'0 0.0
2017-Oct-23 20:27S 24°05' W 046°21'0 0.0
2017-Oct-23 20:00S 24°05' W 046°21'0 0.0
2017-Oct-23 19:30S 24°05' W 046°21'0 0.0
2017-Oct-23 18:39S 24°05' W 046°21'0 0.1
2017-Oct-23 18:27S 24°05' W 046°21'0 0.0
2017-Oct-23 18:00S 24°05' W 046°21'0 0.0
2017-Oct-23 17:30S 24°05' W 046°21'0 0.0
2017-Oct-23 16:57S 24°05' W 046°21'0 0.0
2017-Oct-23 16:24S 24°05' W 046°21'0 0.0
2017-Oct-23 16:00S 24°05' W 046°21'0 0.0
2017-Oct-23 15:21S 24°05' W 046°21'0 0.0
2017-Oct-23 14:57S 24°05' W 046°21'0 0.0
2017-Oct-23 14:30S 24°05' W 046°21'0 0.0
2017-Oct-23 13:57S 24°05' W 046°21'0 0.0
2017-Oct-23 13:30S 24°05' W 046°21'0 0.0
2017-Oct-23 12:51S 24°05' W 046°21'0 0.0
2017-Oct-23 12:21S 24°05' W 046°21'0 0.0
2017-Oct-23 12:00S 24°05' W 046°21'0 0.0
2017-Oct-23 11:27S 24°05' W 046°21'0 0.1
2017-Oct-23 11:00S 24°05' W 046°21'0 0.0
2017-Oct-23 10:30S 24°05' W 046°21'0 0.0
2017-Oct-23 09:57S 24°05' W 046°21'0 0.0
2017-Oct-23 09:27S 24°05' W 046°21'0 0.0
2017-Oct-23 09:00S 24°05' W 046°21'0 0.0
2017-Oct-23 08:27S 24°05' W 046°21'0 0.0
2017-Oct-23 07:57S 24°05' W 046°21'0 0.0
2017-Oct-23 07:27S 24°05' W 046°21'0 0.0
2017-Oct-23 06:45S 24°05' W 046°21'  
Track history (hours):
 
Tides and Currents Weather Stations Pressure Air Temp Water Temp Dewpoint Dewpoint Depression Visibility Wind Speed Wind Dir Waves Ship Positions

Seapace

Last reported at 2017-Nov-02 06:43 UTC. Time now 2017-Nov-24 02:09 UTC.
Position S 24°39' W 046°33'.
Warning: this ship's position is 21 days out of date.

Length 190 m; draft 6.9 m.

Type: Cargo ship. MMSI: 248184000.

Date/timePositionNaut miles runAvg speedWind from/ knotsBaromVisibWave heightAir tempDewpointWater temp
2017-Nov-02 06:43S 24°39' W 046°33'311.4
2017-Nov-02 06:29S 24°37' W 046°32'611.2
2017-Nov-02 05:56S 24°31' W 046°30'511.1
2017-Nov-02 05:28S 24°26' W 046°28'511.0
2017-Nov-02 05:00S 24°21' W 046°27'611.0
2017-Nov-02 04:30S 24°16' W 046°25'611.0
2017-Nov-02 04:00S 24°11' W 046°24'510.9
2017-Nov-02 03:30S 24°05' W 046°22'510.6
2017-Nov-02 03:00S 24°00' W 046°20'3 6.2
2017-Nov-02 02:30S 23°58' W 046°18'  
2017-Oct-29 09:34S 23°56' W 046°19'0 1.6
2017-Oct-29 09:29S 23°56' W 046°19'3 6.4
2017-Oct-29 09:00S 23°59' W 046°17'4 7.6
2017-Oct-29 08:30S 24°01' W 046°21'3 5.4
2017-Oct-29 08:00S 24°04' W 046°22'1 1.5
2017-Oct-29 07:31S 24°05' W 046°21'0 0.1
2017-Oct-29 07:01S 24°05' W 046°21'0 0.0
2017-Oct-29 06:28S 24°05' W 046°21'0 0.0
2017-Oct-29 06:01S 24°05' W 046°21'0 0.0
2017-Oct-29 05:28S 24°05' W 046°21'0 0.0
2017-Oct-29 05:01S 24°05' W 046°21'0 0.1
2017-Oct-29 04:31S 24°05' W 046°21'0 0.0
2017-Oct-29 03:58S 24°05' W 046°21'0 0.0
2017-Oct-28 18:48S 24°05' W 046°22'0 0.0
2017-Oct-28 18:30S 24°05' W 046°22'0 0.0
2017-Oct-28 18:01S 24°05' W 046°22'0 0.0
2017-Oct-28 17:28S 24°05' W 046°22'0 0.0
2017-Oct-28 17:00S 24°05' W 046°22'0 0.0
2017-Oct-28 16:27S 24°05' W 046°22'0 0.0
2017-Oct-28 15:51S 24°05' W 046°21'0 0.0
2017-Oct-28 15:24S 24°05' W 046°21'0 0.0
2017-Oct-28 14:58S 24°05' W 046°21'0 0.0
2017-Oct-28 14:30S 24°05' W 046°21'0 0.1
2017-Oct-28 14:00S 24°05' W 046°21'0 0.0
2017-Oct-28 13:30S 24°05' W 046°21'0 0.0
2017-Oct-28 12:57S 24°05' W 046°21'0 0.1
2017-Oct-28 12:31S 24°05' W 046°21'0 0.0
2017-Oct-28 12:00S 24°05' W 046°21'0 0.0
2017-Oct-28 11:30S 24°05' W 046°21'0 0.0
2017-Oct-28 11:00S 24°05' W 046°21'0 0.1
2017-Oct-28 10:27S 24°05' W 046°21'0 0.0
2017-Oct-28 10:00S 24°05' W 046°21'0 0.0
2017-Oct-28 09:30S 24°05' W 046°21'0 0.0
2017-Oct-28 08:57S 24°05' W 046°21'0 0.1
2017-Oct-28 08:30S 24°05' W 046°21'0 0.0
2017-Oct-28 07:51S 24°05' W 046°21'0 0.1
2017-Oct-28 07:27S 24°05' W 046°21'0 0.0
2017-Oct-28 07:00S 24°05' W 046°21'0 0.0
2017-Oct-28 06:24S 24°05' W 046°21'0 0.0
2017-Oct-28 06:00S 24°05' W 046°21'0 0.0
2017-Oct-28 05:30S 24°05' W 046°21'0 0.0
2017-Oct-28 05:00S 24°05' W 046°21'0 0.0
2017-Oct-28 04:30S 24°05' W 046°21'0 0.1
2017-Oct-28 04:00S 24°05' W 046°21'0 0.0
2017-Oct-28 03:27S 24°05' W 046°21'0 0.1
2017-Oct-28 03:00S 24°05' W 046°21'0 0.0
2017-Oct-28 02:27S 24°05' W 046°21'0 0.1
2017-Oct-28 01:54S 24°05' W 046°22'0 0.1
2017-Oct-28 01:30S 24°05' W 046°22'0 0.1
2017-Oct-28 00:48S 24°05' W 046°22'0 0.0
2017-Oct-28 00:30S 24°05' W 046°22'0 0.1
2017-Oct-28 00:00S 24°05' W 046°22'0 0.1
2017-Oct-27 23:30S 24°05' W 046°22'0 0.0
2017-Oct-27 22:57S 24°05' W 046°22'0 0.0
2017-Oct-27 22:30S 24°05' W 046°22'0 0.0
2017-Oct-27 21:57S 24°05' W 046°22'0 0.0
2017-Oct-27 21:27S 24°05' W 046°22'0 0.0
2017-Oct-27 21:00S 24°05' W 046°22'0 0.0
2017-Oct-27 20:27S 24°05' W 046°22'0 0.1
2017-Oct-27 20:00S 24°05' W 046°22'0 0.0
2017-Oct-27 19:27S 24°05' W 046°22'0 0.0
2017-Oct-27 19:00S 24°05' W 046°22'0 0.0
2017-Oct-27 18:30S 24°05' W 046°22'0 0.0
2017-Oct-27 18:00S 24°05' W 046°22'0 0.0
2017-Oct-27 17:30S 24°05' W 046°22'0 0.0
2017-Oct-27 16:57S 24°05' W 046°22'0 0.0
2017-Oct-27 16:30S 24°05' W 046°22'0 0.0
2017-Oct-27 15:48S 24°05' W 046°22'0 0.1
2017-Oct-27 15:30S 24°05' W 046°22'0 0.0
2017-Oct-27 14:57S 24°05' W 046°22'0 0.0
2017-Oct-27 14:30S 24°05' W 046°22'0 0.1
2017-Oct-27 13:57S 24°05' W 046°22'0 0.0
2017-Oct-27 13:27S 24°05' W 046°22'0 0.0
2017-Oct-27 13:00S 24°05' W 046°22'0 0.0
2017-Oct-27 12:30S 24°05' W 046°22'0 0.0
2017-Oct-27 11:57S 24°05' W 046°22'0 0.0
2017-Oct-27 11:27S 24°05' W 046°22'0 0.0
2017-Oct-27 10:57S 24°05' W 046°22'0 0.1
2017-Oct-27 10:30S 24°05' W 046°22'0 0.2
2017-Oct-27 10:00S 24°05' W 046°21'0 0.1
2017-Oct-27 09:27S 24°05' W 046°21'0 0.1
2017-Oct-27 09:00S 24°05' W 046°21'0 0.0
2017-Oct-27 08:27S 24°05' W 046°21'0 0.3
2017-Oct-27 08:00S 24°05' W 046°21'0 0.3
2017-Oct-27 07:27S 24°05' W 046°22'0 0.0
2017-Oct-27 07:00S 24°05' W 046°22'0 0.0
2017-Oct-27 06:30S 24°05' W 046°22'0 0.0
2017-Oct-27 06:00S 24°05' W 046°22'0 0.0
2017-Oct-27 05:30S 24°05' W 046°22'0 0.0
2017-Oct-27 05:00S 24°05' W 046°22'0 0.0
2017-Oct-27 04:30S 24°05' W 046°22'0 0.0
2017-Oct-27 03:54S 24°05' W 046°22'0 0.0
2017-Oct-27 03:30S 24°05' W 046°22'0 0.0
2017-Oct-27 03:00S 24°05' W 046°22'0 0.0
2017-Oct-27 02:27S 24°05' W 046°22'0 0.0
2017-Oct-27 01:54S 24°05' W 046°22'0 0.0
2017-Oct-27 01:30S 24°05' W 046°22'0 0.0
2017-Oct-27 01:00S 24°05' W 046°22'0 0.0
2017-Oct-27 00:27S 24°05' W 046°22'0 0.0
2017-Oct-27 00:00S 24°05' W 046°22'0 0.0
2017-Oct-26 23:30S 24°05' W 046°22'0 0.0
2017-Oct-26 23:00S 24°05' W 046°22'0 0.0
2017-Oct-26 22:30S 24°05' W 046°22'0 0.0
2017-Oct-26 21:57S 24°05' W 046°22'0 0.0
2017-Oct-26 21:30S 24°05' W 046°22'0 0.1
2017-Oct-26 20:57S 24°05' W 046°22'0 0.0
2017-Oct-26 20:27S 24°05' W 046°22'0 0.0
2017-Oct-26 20:00S 24°05' W 046°22'0 0.0
2017-Oct-26 19:27S 24°05' W 046°22'0 0.0
2017-Oct-26 18:57S 24°05' W 046°22'0 0.1
2017-Oct-26 18:27S 24°05' W 046°22'0 0.1
2017-Oct-26 18:00S 24°05' W 046°22'0 0.0
2017-Oct-26 17:27S 24°05' W 046°22'0 0.0
2017-Oct-26 16:57S 24°05' W 046°22'0 0.0
2017-Oct-26 16:27S 24°05' W 046°22'0 0.1
2017-Oct-26 16:00S 24°05' W 046°22'0 0.0
2017-Oct-26 15:30S 24°05' W 046°22'0 0.0
2017-Oct-26 15:00S 24°05' W 046°22'0 0.0
2017-Oct-26 14:27S 24°05' W 046°22'0 0.0
2017-Oct-26 13:57S 24°05' W 046°22'0 0.0
2017-Oct-26 13:27S 24°05' W 046°22'0 0.0
2017-Oct-26 13:00S 24°05' W 046°22'0 0.0
2017-Oct-26 12:30S 24°05' W 046°22'0 0.0
2017-Oct-26 11:57S 24°05' W 046°22'0 0.0
2017-Oct-26 11:24S 24°05' W 046°22'0 0.0
2017-Oct-26 11:00S 24°05' W 046°22'0 0.1
2017-Oct-26 10:21S 24°05' W 046°22'0 0.1
2017-Oct-26 09:54S 24°05' W 046°22'0 0.1
2017-Oct-26 09:27S 24°05' W 046°22'0 0.0
2017-Oct-26 08:57S 24°05' W 046°22'0 0.1
2017-Oct-26 08:30S 24°05' W 046°22'0 0.1
2017-Oct-26 08:00S 24°05' W 046°22'0 0.1
2017-Oct-26 07:30S 24°05' W 046°22'0 0.0
2017-Oct-26 07:00S 24°05' W 046°22'0 0.0
2017-Oct-26 06:24S 24°05' W 046°22'0 0.0
2017-Oct-26 05:45S 24°05' W 046°22'0 0.1
2017-Oct-26 05:30S 24°05' W 046°22'0 0.1
2017-Oct-26 04:57S 24°05' W 046°22'0 0.1
2017-Oct-26 04:27S 24°05' W 046°22'0 0.0
2017-Oct-26 03:57S 24°05' W 046°22'0 0.0
2017-Oct-26 03:27S 24°05' W 046°22'0 0.0
2017-Oct-26 03:00S 24°05' W 046°22'0 0.0
2017-Oct-26 02:30S 24°05' W 046°22'0 0.2
2017-Oct-26 01:51S 24°05' W 046°22'0 0.3
2017-Oct-26 01:30S 24°05' W 046°22'0 0.0
2017-Oct-26 01:00S 24°05' W 046°22'0 0.1
2017-Oct-26 00:27S 24°05' W 046°22'0 0.0
2017-Oct-25 23:54S 24°05' W 046°22'0 0.1
2017-Oct-25 23:30S 24°05' W 046°22'0 0.0
2017-Oct-25 23:00S 24°05' W 046°22'0 0.0
2017-Oct-25 22:21S 24°05' W 046°22'0 0.0
2017-Oct-25 21:57S 24°05' W 046°22'0 0.0
2017-Oct-25 21:30S 24°05' W 046°22'0 0.0
2017-Oct-25 20:57S 24°05' W 046°22'0 0.0
2017-Oct-25 20:27S 24°05' W 046°22'0 0.0
2017-Oct-25 19:57S 24°05' W 046°22'0 0.0
2017-Oct-25 19:30S 24°05' W 046°22'0 0.0
2017-Oct-25 19:00S 24°05' W 046°22'0 0.0
2017-Oct-25 18:21S 24°05' W 046°22'0 0.1
2017-Oct-25 18:00S 24°05' W 046°22'0 0.0
2017-Oct-25 17:30S 24°05' W 046°22'0 0.0
2017-Oct-25 17:00S 24°05' W 046°22'0 0.0
2017-Oct-25 16:30S 24°05' W 046°22'0 0.0
2017-Oct-25 15:57S 24°05' W 046°22'0 0.0
2017-Oct-25 15:27S 24°05' W 046°22'0 0.0
2017-Oct-25 14:57S 24°05' W 046°22'0 0.0
2017-Oct-25 14:21S 24°05' W 046°22'0 0.0
2017-Oct-25 13:57S 24°05' W 046°22'0 0.0
2017-Oct-25 13:30S 24°05' W 046°22'0 0.0
2017-Oct-25 13:00S 24°05' W 046°22'0 0.0
2017-Oct-25 12:30S 24°05' W 046°22'0 0.0
2017-Oct-25 11:48S 24°05' W 046°22'0 0.0
2017-Oct-25 11:27S 24°05' W 046°22'0 0.0
2017-Oct-25 11:00S 24°05' W 046°22'0 0.0
2017-Oct-25 10:30S 24°05' W 046°22'0 0.0
2017-Oct-25 10:00S 24°05' W 046°22'0 0.0
2017-Oct-25 09:30S 24°05' W 046°22'0 0.0
2017-Oct-25 09:00S 24°05' W 046°22'0 0.0
2017-Oct-25 08:30S 24°05' W 046°22'0 0.0
2017-Oct-25 08:00S 24°05' W 046°22'0 0.0
2017-Oct-25 07:30S 24°05' W 046°22'0 0.1
2017-Oct-25 07:00S 24°05' W 046°22'0 0.0
2017-Oct-25 06:27S 24°05' W 046°22'0 0.0
2017-Oct-25 06:00S 24°05' W 046°22'0 0.0
2017-Oct-25 05:24S 24°05' W 046°22'0 0.0
2017-Oct-25 05:00S 24°05' W 046°22'0 0.0
2017-Oct-25 04:27S 24°05' W 046°22'0 0.0
2017-Oct-25 04:00S 24°05' W 046°22'0 0.0
2017-Oct-25 03:27S 24°05' W 046°22'0 0.0
2017-Oct-25 02:57S 24°05' W 046°22'0 0.0
2017-Oct-25 02:30S 24°05' W 046°22'0 0.0
2017-Oct-25 02:00S 24°05' W 046°22'0 0.0
2017-Oct-25 01:30S 24°05' W 046°22'0 0.0
2017-Oct-25 00:54S 24°05' W 046°22'0 0.1
2017-Oct-25 00:30S 24°05' W 046°22'0 0.0
2017-Oct-25 00:00S 24°05' W 046°22'0 0.0
2017-Oct-24 23:15S 24°05' W 046°22'0 0.0
2017-Oct-24 23:00S 24°05' W 046°22'0 0.0
2017-Oct-24 22:27S 24°05' W 046°22'0 0.0
2017-Oct-24 21:57S 24°05' W 046°22'0 0.1
2017-Oct-24 21:30S 24°05' W 046°22'0 0.0
2017-Oct-24 21:00S 24°05' W 046°22'0 0.0
2017-Oct-24 20:30S 24°05' W 046°22'0 0.0
2017-Oct-24 20:00S 24°05' W 046°22'0 0.0
2017-Oct-24 19:30S 24°05' W 046°22'0 0.0
2017-Oct-24 18:57S 24°05' W 046°22'0 0.0
2017-Oct-24 18:27S 24°05' W 046°22'0 0.0
2017-Oct-24 17:57S 24°05' W 046°22'0 0.0
2017-Oct-24 17:15S 24°05' W 046°22'0 0.0
2017-Oct-24 17:00S 24°05' W 046°22'0 0.0
2017-Oct-24 16:30S 24°05' W 046°22'0 0.0
2017-Oct-24 16:00S 24°05' W 046°21'0 0.0
2017-Oct-24 15:30S 24°05' W 046°21'0 0.0
2017-Oct-24 15:00S 24°05' W 046°21'0 0.1
2017-Oct-24 14:30S 24°05' W 046°21'0 0.1
2017-Oct-24 13:57S 24°05' W 046°21'0 0.0
2017-Oct-24 13:30S 24°05' W 046°21'0 0.0
2017-Oct-24 13:00S 24°05' W 046°21'0 0.1
2017-Oct-24 12:30S 24°05' W 046°21'0 0.0
2017-Oct-24 12:00S 24°05' W 046°21'0 0.0
2017-Oct-24 11:30S 24°05' W 046°21'0 0.0
2017-Oct-24 11:00S 24°05' W 046°21'0 0.0
2017-Oct-24 10:30S 24°05' W 046°21'0 0.0
2017-Oct-24 10:00S 24°05' W 046°21'0 0.0
2017-Oct-24 09:30S 24°05' W 046°21'0 0.0
2017-Oct-24 09:00S 24°05' W 046°21'0 0.0
2017-Oct-24 08:30S 24°05' W 046°21'0 0.0
2017-Oct-24 08:00S 24°05' W 046°21'0 0.0
2017-Oct-24 07:27S 24°05' W 046°21'0 0.0
2017-Oct-24 06:57S 24°05' W 046°21'0 0.0
2017-Oct-24 06:27S 24°05' W 046°21'0 0.0
2017-Oct-24 06:00S 24°05' W 046°21'0 0.0
2017-Oct-24 05:30S 24°05' W 046°21'0 0.0
2017-Oct-24 04:57S 24°05' W 046°21'0 0.0
2017-Oct-24 04:27S 24°05' W 046°21'0 0.0
2017-Oct-24 03:57S 24°05' W 046°21'0 0.0
2017-Oct-24 03:27S 24°05' W 046°21'0 0.0
2017-Oct-24 02:57S 24°05' W 046°21'0 0.0
2017-Oct-24 02:27S 24°05' W 046°21'0 0.0
2017-Oct-24 02:00S 24°05' W 046°21'0 0.0
2017-Oct-24 01:27S 24°05' W 046°21'0 0.0
2017-Oct-24 00:57S 24°05' W 046°21'0 0.0
2017-Oct-24 00:27S 24°05' W 046°21'0 0.0
2017-Oct-23 23:57S 24°05' W 046°21'0 0.0
2017-Oct-23 23:30S 24°05' W 046°21'0 0.0
2017-Oct-23 22:57S 24°05' W 046°21'0 0.0
2017-Oct-23 22:30S 24°05' W 046°21'0 0.0
2017-Oct-23 21:57S 24°05' W 046°21'0 0.1
2017-Oct-23 21:30S 24°05' W 046°21'0 0.0
2017-Oct-23 21:00S 24°05' W 046°21'0 0.0
2017-Oct-23 20:27S 24°05' W 046°21'0 0.0
2017-Oct-23 20:00S 24°05' W 046°21'0 0.0
2017-Oct-23 19:30S 24°05' W 046°21'0 0.0
2017-Oct-23 18:39S 24°05' W 046°21'0 0.1
2017-Oct-23 18:27S 24°05' W 046°21'0 0.0
2017-Oct-23 18:00S 24°05' W 046°21'0 0.0
2017-Oct-23 17:30S 24°05' W 046°21'0 0.0
2017-Oct-23 16:57S 24°05' W 046°21'0 0.0
2017-Oct-23 16:24S 24°05' W 046°21'0 0.0
2017-Oct-23 16:00S 24°05' W 046°21'0 0.0
2017-Oct-23 15:21S 24°05' W 046°21'0 0.0
2017-Oct-23 14:57S 24°05' W 046°21'0 0.0
2017-Oct-23 14:30S 24°05' W 046°21'0 0.0
2017-Oct-23 13:57S 24°05' W 046°21'0 0.0
2017-Oct-23 13:30S 24°05' W 046°21'0 0.0
2017-Oct-23 12:51S 24°05' W 046°21'0 0.0
2017-Oct-23 12:21S 24°05' W 046°21'0 0.0
2017-Oct-23 12:00S 24°05' W 046°21'0 0.0
2017-Oct-23 11:27S 24°05' W 046°21'0 0.1
2017-Oct-23 11:00S 24°05' W 046°21'0 0.0
2017-Oct-23 10:30S 24°05' W 046°21'0 0.0
2017-Oct-23 09:57S 24°05' W 046°21'0 0.0
2017-Oct-23 09:27S 24°05' W 046°21'0 0.0
2017-Oct-23 09:00S 24°05' W 046°21'0 0.0
2017-Oct-23 08:27S 24°05' W 046°21'0 0.0
2017-Oct-23 07:57S 24°05' W 046°21'0 0.0
2017-Oct-23 07:27S 24°05' W 046°21'0 0.0
2017-Oct-23 06:45S 24°05' W 046°21'  

Dump ship's entire track history